createdAt,value
2023-04-03T00:01:12.441Z,1.57
2023-04-03T00:03:40.293Z,1.37
2023-04-03T00:06:09.678Z,1.40
2023-04-03T00:08:39.737Z,1.50
2023-04-03T00:11:08.435Z,1.47
2023-04-03T00:13:36.606Z,1.67
2023-04-03T00:16:05.218Z,1.70
2023-04-03T00:18:33.476Z,1.57
2023-04-03T00:21:01.462Z,1.47
2023-04-03T00:23:29.364Z,1.40
2023-04-03T00:25:58.441Z,1.17
2023-04-03T00:28:26.422Z,1.80
2023-04-03T00:30:54.308Z,1.40
2023-04-03T00:33:22.870Z,1.10
2023-04-03T00:35:51.461Z,1.57
2023-04-03T00:38:19.383Z,1.20
2023-04-03T00:40:49.482Z,1.20
2023-04-03T00:43:20.862Z,1.40
2023-04-03T00:45:50.091Z,1.30
2023-04-03T00:48:20.405Z,1.37
2023-04-03T00:50:49.118Z,1.77
2023-04-03T00:53:21.705Z,1.43
2023-04-03T00:55:51.488Z,1.50
2023-04-03T00:58:22.816Z,1.30
2023-04-03T01:00:57.212Z,1.57
2023-04-03T01:03:24.974Z,1.80
2023-04-03T01:05:52.845Z,1.17
2023-04-03T01:08:20.679Z,1.60
2023-04-03T01:10:48.455Z,1.50
2023-04-03T01:13:23.618Z,1.43
2023-04-03T01:15:51.345Z,1.40
2023-04-03T01:18:19.066Z,1.40
2023-04-03T01:21:15.976Z,1.70
2023-04-03T01:24:22.068Z,1.33
2023-04-03T01:26:50.422Z,1.20
2023-04-03T01:29:20.233Z,1.40
2023-04-03T01:31:57.672Z,1.33
2023-04-03T01:34:25.943Z,1.43
2023-04-03T01:36:54.394Z,1.40
2023-04-03T01:39:22.349Z,1.50
2023-04-03T01:41:50.747Z,1.40
2023-04-03T01:44:18.499Z,1.50
2023-04-03T01:46:46.197Z,1.80
2023-04-03T01:49:15.394Z,1.57
2023-04-03T01:51:43.109Z,1.50
2023-04-03T01:54:11.313Z,1.70
2023-04-03T01:56:40.008Z,1.47
2023-04-03T01:59:07.821Z,1.40
2023-04-03T02:01:35.573Z,1.70
2023-04-03T02:04:03.425Z,1.40
2023-04-03T02:06:32.590Z,1.67
2023-04-03T02:09:00.290Z,1.20
2023-04-03T02:11:28.131Z,1.43
2023-04-03T02:13:55.990Z,1.93
2023-04-03T02:16:23.736Z,1.53
2023-04-03T02:18:51.956Z,1.60
2023-04-03T02:21:19.719Z,1.17
2023-04-03T02:23:48.797Z,1.50
2023-04-03T02:26:17.880Z,1.50
2023-04-03T02:28:45.835Z,1.30
2023-04-03T02:31:13.648Z,1.47
2023-04-03T02:33:42.093Z,1.60
2023-04-03T02:36:10.473Z,1.03
2023-04-03T02:38:38.595Z,1.40
2023-04-03T02:41:10.016Z,1.67
2023-04-03T02:43:38.609Z,1.53
2023-04-03T02:46:06.674Z,1.40
2023-04-03T02:48:34.595Z,1.33
2023-04-03T02:51:02.436Z,1.53
2023-04-03T02:53:30.256Z,1.53
2023-04-03T02:55:57.971Z,1.07
2023-04-03T02:58:27.054Z,1.40
2023-04-03T03:00:55.736Z,1.20
2023-04-03T03:03:23.938Z,1.57
2023-04-03T03:05:51.600Z,1.33
2023-04-03T03:08:21.161Z,1.30
2023-04-03T03:10:48.879Z,2.07
2023-04-03T03:13:16.615Z,1.43
2023-04-03T03:15:45.817Z,1.80
2023-04-03T03:18:13.517Z,1.17
2023-04-03T03:20:41.297Z,1.60
2023-04-03T03:23:09.092Z,1.63
2023-04-03T03:25:40.181Z,1.50
2023-04-03T03:28:08.259Z,1.20
2023-04-03T03:30:36.436Z,1.30
2023-04-03T03:33:05.566Z,1.50
2023-04-03T03:35:33.441Z,1.43
2023-04-03T03:38:01.299Z,1.23
2023-04-03T03:40:29.001Z,1.50
2023-04-03T03:42:56.700Z,1.93
2023-04-03T03:45:24.573Z,1.50
2023-04-03T03:47:52.383Z,1.23
2023-04-03T03:50:21.541Z,1.40
2023-04-03T03:52:49.335Z,1.10
2023-04-03T03:55:17.307Z,1.30
2023-04-03T03:57:45.024Z,1.20
2023-04-03T04:00:13.563Z,1.40
2023-04-03T04:02:41.380Z,1.60
2023-04-03T04:05:09.341Z,1.30
2023-04-03T04:07:38.406Z,1.50
2023-04-03T04:10:07.090Z,1.57
2023-04-03T04:12:36.528Z,1.50
2023-04-03T04:15:04.562Z,1.50
2023-04-03T04:17:34.261Z,1.47
2023-04-03T04:20:01.996Z,1.47
2023-04-03T04:22:29.748Z,1.37
2023-04-03T04:24:58.813Z,1.60
2023-04-03T04:27:26.525Z,1.40
2023-04-03T04:29:54.240Z,1.40
2023-04-03T04:32:22.017Z,1.63
2023-04-03T04:34:49.755Z,1.00
2023-04-03T04:37:17.599Z,1.90
2023-04-03T04:39:45.255Z,1.50
2023-04-03T04:42:16.717Z,1.00
2023-04-03T04:44:45.799Z,1.43
2023-04-03T04:47:13.505Z,1.87
2023-04-03T04:49:41.450Z,1.70
2023-04-03T04:52:09.187Z,1.60
2023-04-03T04:54:36.870Z,1.93
2023-04-03T04:57:04.612Z,1.80
2023-04-03T04:59:33.721Z,1.57
2023-04-03T05:02:01.666Z,1.93
2023-04-03T05:04:29.581Z,1.53
2023-04-03T05:06:57.356Z,1.40
2023-04-03T05:09:25.015Z,1.50
2023-04-03T05:11:52.746Z,1.33
2023-04-03T05:14:20.502Z,1.03
2023-04-03T05:16:51.523Z,1.60
2023-04-03T05:19:20.774Z,1.50
2023-04-03T05:21:48.614Z,1.57
2023-04-03T05:24:17.260Z,1.30
2023-04-03T05:26:45.201Z,1.20
2023-04-03T05:29:13.160Z,1.30
2023-04-03T05:31:41.034Z,1.67
2023-04-03T05:34:10.359Z,1.80
2023-04-03T05:36:38.175Z,1.47
2023-04-03T05:39:06.073Z,1.43
2023-04-03T05:41:34.091Z,1.50
2023-04-03T05:44:01.920Z,1.70
2023-04-03T05:46:29.691Z,1.47
2023-04-03T05:48:57.507Z,1.73
2023-04-03T05:51:30.881Z,1.83
2023-04-03T05:54:04.768Z,1.43
2023-04-03T05:56:32.484Z,1.50
2023-04-03T05:59:00.333Z,1.67
2023-04-03T06:01:28.220Z,1.30
2023-04-03T06:03:56.914Z,1.73
2023-04-03T06:06:26.704Z,1.70
2023-04-03T06:08:54.520Z,1.50
2023-04-03T06:11:23.286Z,1.70
2023-04-03T06:13:51.007Z,1.40
2023-04-03T06:16:19.822Z,1.83
2023-04-03T06:18:47.674Z,2.00
2023-04-03T06:21:15.501Z,1.27
2023-04-03T06:23:44.597Z,1.90
2023-04-03T06:26:12.707Z,2.10
2023-04-03T06:28:40.447Z,1.40
2023-04-03T06:31:08.231Z,1.60
2023-04-03T06:33:36.357Z,1.57
2023-04-03T06:36:07.586Z,1.60
2023-04-03T06:38:36.720Z,1.70
2023-04-03T06:41:06.682Z,1.47
2023-04-03T06:43:35.028Z,1.87
2023-04-03T06:46:02.898Z,1.53
2023-04-03T06:48:31.041Z,1.30
2023-04-03T06:50:58.822Z,1.50
2023-04-03T06:53:27.188Z,1.47
2023-04-03T06:55:55.694Z,1.73
2023-04-03T06:58:24.829Z,1.03
2023-04-03T07:00:52.902Z,1.60
2023-04-03T07:03:20.642Z,1.33
2023-04-03T07:05:48.486Z,1.37
2023-04-03T07:08:16.333Z,1.17
2023-04-03T07:10:44.068Z,1.37
2023-04-03T07:13:11.983Z,1.60
2023-04-03T07:15:41.120Z,1.50
2023-04-03T07:18:09.336Z,1.50
2023-04-03T07:20:37.281Z,1.90
2023-04-03T07:23:05.026Z,1.40
2023-04-03T07:25:34.685Z,1.00
2023-04-03T07:28:02.870Z,1.43
2023-04-03T07:30:30.621Z,1.60
2023-04-03T07:32:59.822Z,1.80
2023-04-03T07:35:27.579Z,1.50
2023-04-03T07:37:55.408Z,1.40
2023-04-03T07:40:23.158Z,1.67
2023-04-03T07:42:51.150Z,1.17
2023-04-03T07:45:20.703Z,1.07
2023-04-03T07:47:48.990Z,1.20
2023-04-03T07:50:18.426Z,1.10
2023-04-03T07:52:46.543Z,1.30
2023-04-03T07:55:14.305Z,1.53
2023-04-03T07:57:42.259Z,1.00
2023-04-03T08:00:11.288Z,1.00
2023-04-03T08:02:39.144Z,1.03
2023-04-03T08:05:07.848Z,0.97
2023-04-03T08:07:38.923Z,1.00
2023-04-03T08:10:07.839Z,1.00
2023-04-03T08:12:35.748Z,0.70
2023-04-03T08:15:03.536Z,0.80
2023-04-03T08:17:31.424Z,1.20
2023-04-03T08:19:59.338Z,1.00
2023-04-03T08:22:27.285Z,0.67
2023-04-03T08:24:59.393Z,0.90
2023-04-03T08:27:28.533Z,0.90
2023-04-03T08:29:56.442Z,0.83
2023-04-03T08:32:24.311Z,0.83
2023-04-03T08:34:52.104Z,0.90
2023-04-03T08:37:20.090Z,1.03
2023-04-03T08:39:48.912Z,0.90
2023-04-03T08:42:24.483Z,1.63
2023-04-03T08:44:58.087Z,1.43
2023-04-03T08:47:32.332Z,1.00
2023-04-03T08:50:02.253Z,1.10
2023-04-03T08:52:37.726Z,1.10
2023-04-03T08:55:09.531Z,1.10
2023-04-03T08:57:43.672Z,1.00
2023-04-03T09:00:19.975Z,0.90
2023-04-03T09:02:49.419Z,1.03
2023-04-03T09:05:19.241Z,1.00
2023-04-03T09:07:50.116Z,1.10
2023-04-03T09:10:25.273Z,1.20
2023-04-03T09:13:01.765Z,1.03
2023-04-03T09:15:38.480Z,0.80
2023-04-03T09:18:16.820Z,1.10
2023-04-03T09:20:51.989Z,0.90
2023-04-03T09:23:26.465Z,0.97
2023-04-03T09:25:59.947Z,0.80
2023-04-03T09:28:38.894Z,1.00
2023-04-03T09:31:21.481Z,1.00
2023-04-03T09:33:51.320Z,1.13
2023-04-03T09:36:41.161Z,1.53
2023-04-03T09:39:13.840Z,0.83
2023-04-03T09:41:41.620Z,0.90
2023-04-03T09:44:23.718Z,0.90
2023-04-03T09:46:51.732Z,0.90
2023-04-03T09:49:20.756Z,0.73
2023-04-03T09:51:48.621Z,0.87
2023-04-03T09:54:41.741Z,0.80
2023-04-03T09:57:15.201Z,1.00
2023-04-03T09:59:48.344Z,0.83
2023-04-03T10:02:32.078Z,0.80
2023-04-03T10:05:09.609Z,0.87
2023-04-03T10:07:40.259Z,0.73
2023-04-03T10:10:20.977Z,0.90
2023-04-03T10:12:49.913Z,1.40
2023-04-03T10:15:21.045Z,1.40
2023-04-03T10:17:58.888Z,0.57
2023-04-03T10:20:35.155Z,0.70
2023-04-03T10:23:16.863Z,0.63
2023-04-03T10:25:56.066Z,0.80
2023-04-03T10:28:31.430Z,1.10
2023-04-03T10:31:07.598Z,1.00
2023-04-03T10:33:45.739Z,1.10
2023-04-03T10:36:21.523Z,1.07
2023-04-03T10:38:57.356Z,0.60
2023-04-03T10:41:34.593Z,0.93
2023-04-03T10:44:11.566Z,1.30
2023-04-03T10:46:45.889Z,0.90
2023-04-03T10:49:39.127Z,1.00
2023-04-03T10:52:18.643Z,0.77
2023-04-03T10:54:51.551Z,1.00
2023-04-03T10:57:20.601Z,0.80
2023-04-03T10:59:52.764Z,0.90
2023-04-03T11:02:30.813Z,1.20
2023-04-03T11:05:03.627Z,0.87
2023-04-03T11:07:38.918Z,0.97
2023-04-03T11:10:15.870Z,0.70
2023-04-03T11:12:47.133Z,0.60
2023-04-03T11:15:18.929Z,0.67
2023-04-03T11:17:54.076Z,0.97
2023-04-03T11:20:28.563Z,0.67
2023-04-03T11:23:03.855Z,0.70
2023-04-03T11:25:33.784Z,0.97
2023-04-03T11:28:03.707Z,0.80
2023-04-03T11:30:38.515Z,0.80
2023-04-03T11:33:21.758Z,1.17
2023-04-03T11:35:53.684Z,1.00
2023-04-03T11:38:25.722Z,1.00
2023-04-03T11:40:55.751Z,0.90
2023-04-03T11:43:27.063Z,1.07
2023-04-03T11:45:59.616Z,0.97
2023-04-03T11:48:56.552Z,1.00
2023-04-03T11:51:45.746Z,0.93
2023-04-03T11:54:51.232Z,0.83
2023-04-03T11:57:47.097Z,0.80
2023-04-03T12:00:54.081Z,1.00
2023-04-03T12:03:53.552Z,0.80
2023-04-03T12:06:57.749Z,0.60
2023-04-03T12:09:36.810Z,0.80
2023-04-03T12:12:38.846Z,0.80
2023-04-03T12:15:51.738Z,1.27
2023-04-03T12:18:57.556Z,1.07
2023-04-03T12:21:47.255Z,0.70
2023-04-03T12:24:30.582Z,0.90
2023-04-03T12:27:11.540Z,0.77
2023-04-03T12:29:45.572Z,0.60
2023-04-03T12:32:25.174Z,0.80
2023-04-03T12:35:07.368Z,0.70
2023-04-03T12:37:50.306Z,1.10
2023-04-03T12:40:26.729Z,0.97
2023-04-03T12:43:20.989Z,0.67
2023-04-03T12:45:55.974Z,1.03
2023-04-03T12:48:27.292Z,0.70
2023-04-03T12:50:55.996Z,0.80
2023-04-03T12:53:27.715Z,0.90
2023-04-03T12:55:58.184Z,0.90
2023-04-03T12:58:28.210Z,0.60
2023-04-03T13:01:04.185Z,0.93
2023-04-03T13:03:32.789Z,0.90
2023-04-03T13:06:04.809Z,0.80
2023-04-03T13:08:33.198Z,0.63
2023-04-03T13:11:05.600Z,1.17
2023-04-03T13:13:33.424Z,1.00
2023-04-03T13:16:01.742Z,1.23
2023-04-03T13:18:33.271Z,0.87
2023-04-03T13:21:05.596Z,0.90
2023-04-03T13:23:35.368Z,0.60
2023-04-03T13:26:05.539Z,0.57
2023-04-03T13:28:35.068Z,0.90
2023-04-03T13:31:12.612Z,1.13
2023-04-03T13:33:40.842Z,1.00
2023-04-03T13:36:10.891Z,0.80
2023-04-03T13:38:40.692Z,0.80
2023-04-03T13:41:27.326Z,1.10
2023-04-03T13:44:03.355Z,0.70
2023-04-03T13:46:38.218Z,1.30
2023-04-03T13:49:20.680Z,1.10
2023-04-03T13:51:54.245Z,0.80
2023-04-03T13:54:36.225Z,1.10
2023-04-03T13:57:14.662Z,0.97
2023-04-03T13:59:42.523Z,0.70
2023-04-03T14:02:20.112Z,1.20
2023-04-03T14:04:54.075Z,0.70
2023-04-03T14:07:22.354Z,0.70
2023-04-03T14:09:50.512Z,0.80
2023-04-03T14:12:31.233Z,1.07
2023-04-03T14:15:00.512Z,1.17
2023-04-03T14:17:28.940Z,0.97
2023-04-03T14:19:58.340Z,1.10
2023-04-03T14:22:29.316Z,0.60
2023-04-03T14:24:58.451Z,1.00
2023-04-03T14:27:29.931Z,1.33
2023-04-03T14:29:59.752Z,1.10
2023-04-03T14:32:28.117Z,0.97
2023-04-03T14:34:56.262Z,1.10
2023-04-03T14:37:27.384Z,1.20
2023-04-03T14:39:56.171Z,1.27
2023-04-03T14:42:26.771Z,0.93
2023-04-03T14:44:56.207Z,1.03
2023-04-03T14:47:31.711Z,1.53
2023-04-03T14:50:01.324Z,1.00
2023-04-03T14:52:31.958Z,1.00
2023-04-03T14:55:01.291Z,0.80
2023-04-03T14:57:31.463Z,1.27
2023-04-03T15:00:01.718Z,1.00
2023-04-03T15:02:32.036Z,1.30
2023-04-03T15:05:00.952Z,1.20
2023-04-03T15:07:30.473Z,0.90
2023-04-03T15:09:58.229Z,0.87
2023-04-03T15:12:26.127Z,1.17
2023-04-03T15:15:01.809Z,0.77
2023-04-03T15:17:32.141Z,0.90
2023-04-03T15:20:00.477Z,1.03
2023-04-03T15:22:28.244Z,0.80
2023-04-03T15:24:55.931Z,0.90
2023-04-03T15:27:23.698Z,1.00
2023-04-03T15:29:51.466Z,1.10
2023-04-03T15:32:19.131Z,1.07
2023-04-03T15:34:48.256Z,0.90
2023-04-03T15:37:16.019Z,0.93
2023-04-03T15:39:43.801Z,1.17
2023-04-03T15:42:13.754Z,1.07
2023-04-03T15:44:41.596Z,1.00
2023-04-03T15:47:09.549Z,1.20
2023-04-03T15:49:37.598Z,1.37
2023-04-03T15:52:06.734Z,1.20
2023-04-03T15:54:34.438Z,1.20
2023-04-03T15:57:02.270Z,0.90
2023-04-03T15:59:31.758Z,1.07
2023-04-03T16:02:01.873Z,0.90
2023-04-03T16:04:29.780Z,1.00
2023-04-03T16:06:57.761Z,1.17
2023-04-03T16:09:26.855Z,0.80
2023-04-03T16:11:54.556Z,1.10
2023-04-03T16:14:22.299Z,1.20
2023-04-03T16:16:50.736Z,1.00
2023-04-03T16:19:18.603Z,0.90
2023-04-03T16:21:47.580Z,1.67
2023-04-03T16:24:17.229Z,2.07
2023-04-03T16:26:48.171Z,1.70
2023-04-03T16:29:15.939Z,2.70
2023-04-03T16:31:44.809Z,1.30
2023-04-03T16:34:13.413Z,0.97
2023-04-03T16:36:41.385Z,1.10
2023-04-03T16:39:10.994Z,1.33
2023-04-03T16:41:39.012Z,1.43
2023-04-03T16:44:08.871Z,1.10
2023-04-03T16:46:36.649Z,1.00
2023-04-03T16:49:04.804Z,1.30
2023-04-03T16:51:32.711Z,1.40
2023-04-03T16:54:00.674Z,1.00
2023-04-03T16:56:28.773Z,0.90
2023-04-03T16:58:56.656Z,1.03
2023-04-03T17:01:26.077Z,1.30
2023-04-03T17:03:53.939Z,1.53
2023-04-03T17:06:24.376Z,1.90
2023-04-03T17:08:53.763Z,1.80
2023-04-03T17:11:22.977Z,2.10
2023-04-03T17:13:50.849Z,2.87
2023-04-03T17:16:18.851Z,3.27
2023-04-03T17:18:49.076Z,2.27
2023-04-03T17:21:18.192Z,1.93
2023-04-03T17:23:49.029Z,1.77
2023-04-03T17:26:16.734Z,1.97
2023-04-03T17:28:45.615Z,1.60
2023-04-03T17:31:14.655Z,2.53
2023-04-03T17:33:42.374Z,1.30
2023-04-03T17:36:12.776Z,1.03
2023-04-03T17:38:41.208Z,1.10
2023-04-03T17:41:10.115Z,1.23
2023-04-03T17:43:37.878Z,1.20
2023-04-03T17:46:09.646Z,1.10
2023-04-03T17:48:39.174Z,1.10
2023-04-03T17:51:07.820Z,1.27
2023-04-03T17:53:37.774Z,1.13
2023-04-03T17:56:09.477Z,1.47
2023-04-03T17:58:37.272Z,1.03
2023-04-03T18:01:12.829Z,1.10
2023-04-03T18:03:41.225Z,1.00
2023-04-03T18:06:11.504Z,1.20
2023-04-03T18:08:43.392Z,1.33
2023-04-03T18:11:11.735Z,1.10
2023-04-03T18:13:39.663Z,0.97
2023-04-03T18:16:09.386Z,1.00
2023-04-03T18:18:37.459Z,1.10
2023-04-03T18:21:06.170Z,1.23
2023-04-03T18:23:36.073Z,1.20
2023-04-03T18:26:05.821Z,1.07
2023-04-03T18:28:33.940Z,1.03
2023-04-03T18:31:02.459Z,1.07
2023-04-03T18:33:30.509Z,1.10
2023-04-03T18:35:58.283Z,1.10
2023-04-03T18:38:26.018Z,1.20
2023-04-03T18:40:54.202Z,1.03
2023-04-03T18:43:23.370Z,1.30
2023-04-03T18:45:51.233Z,1.10
2023-04-03T18:48:19.220Z,1.17
2023-04-03T18:50:47.072Z,1.00
2023-04-03T18:53:15.227Z,1.03
2023-04-03T18:55:43.144Z,0.90
2023-04-03T18:58:10.888Z,1.60
2023-04-03T19:00:41.505Z,1.60
2023-04-03T19:03:10.639Z,1.30
2023-04-03T19:05:38.591Z,1.20
2023-04-03T19:08:06.724Z,1.20
2023-04-03T19:10:34.455Z,1.30
2023-04-03T19:13:02.224Z,1.30
2023-04-03T19:15:29.924Z,1.30
2023-04-03T19:17:59.089Z,1.70
2023-04-03T19:20:27.049Z,1.80
2023-04-03T19:22:55.251Z,2.03
2023-04-03T19:25:23.363Z,1.93
2023-04-03T19:27:51.419Z,2.20
2023-04-03T19:30:19.213Z,2.40
2023-04-03T19:32:47.650Z,2.20
2023-04-03T19:35:16.804Z,2.57
2023-04-03T19:37:47.740Z,5.27
2023-04-03T19:40:15.812Z,3.20
2023-04-03T19:42:43.601Z,3.00
2023-04-03T19:45:12.225Z,3.43
2023-04-03T19:47:40.138Z,2.70
2023-04-03T19:50:08.623Z,2.10
2023-04-03T19:52:37.822Z,1.87
2023-04-03T19:55:06.238Z,1.67
2023-04-03T19:57:34.129Z,1.40
2023-04-03T20:00:02.093Z,1.10
2023-04-03T20:02:29.810Z,1.30
2023-04-03T20:04:57.615Z,1.73
2023-04-03T20:07:25.895Z,2.13
2023-04-03T20:09:55.017Z,1.80
2023-04-03T20:12:22.768Z,1.70
2023-04-03T20:14:51.040Z,1.97
2023-04-03T20:17:18.849Z,1.50
2023-04-03T20:19:46.641Z,2.33
2023-04-03T20:22:14.382Z,1.70
2023-04-03T20:24:42.675Z,1.30
2023-04-03T20:27:11.902Z,2.70
2023-04-03T20:29:39.971Z,4.30
2023-04-03T20:32:10.592Z,2.43
2023-04-03T20:34:38.803Z,2.30
2023-04-03T20:37:06.808Z,1.70
2023-04-03T20:39:34.714Z,1.60
2023-04-03T20:42:03.906Z,1.50
2023-04-03T20:44:33.048Z,1.60
2023-04-03T20:47:00.826Z,1.70
2023-04-03T20:49:28.684Z,1.57
2023-04-03T20:51:56.434Z,1.80
2023-04-03T20:54:24.726Z,1.50
2023-04-03T20:56:52.770Z,1.63
2023-04-03T20:59:20.818Z,1.70
2023-04-03T21:01:50.005Z,1.27
2023-04-03T21:04:23.044Z,1.50
2023-04-03T21:07:28.410Z,1.47
2023-04-03T21:10:33.550Z,1.53
2023-04-03T21:13:38.954Z,1.43
2023-04-03T21:16:06.377Z,1.17
2023-04-03T21:18:55.391Z,1.90
2023-04-03T21:21:26.071Z,1.53
2023-04-03T21:23:55.397Z,1.57
2023-04-03T21:26:24.106Z,1.43
2023-04-03T21:28:52.714Z,1.20
2023-04-03T21:31:21.933Z,1.30
2023-04-03T21:33:49.873Z,1.50
2023-04-03T21:36:18.909Z,1.03
2023-04-03T21:38:47.658Z,1.23
2023-04-03T21:41:15.486Z,1.30
2023-04-03T21:43:43.196Z,1.50
2023-04-03T21:46:10.985Z,1.43
2023-04-03T21:48:39.225Z,1.40
2023-04-03T21:51:08.310Z,1.40
2023-04-03T21:53:38.297Z,1.10
2023-04-03T21:56:07.175Z,1.23
2023-04-03T21:58:35.125Z,1.67
2023-04-03T22:01:11.389Z,1.40
2023-04-03T22:03:39.400Z,1.40
2023-04-03T22:06:07.435Z,1.43
2023-04-03T22:08:35.349Z,1.10
2023-04-03T22:11:05.899Z,1.40
2023-04-03T22:13:34.228Z,1.33
2023-04-03T22:16:02.498Z,1.90
2023-04-03T22:18:30.572Z,1.33
2023-04-03T22:20:58.404Z,1.23
2023-04-03T22:23:27.246Z,1.57
2023-04-03T22:25:59.477Z,0.97
2023-04-03T22:28:29.079Z,1.37
2023-04-03T22:30:57.246Z,1.33
2023-04-03T22:33:24.944Z,1.00
2023-04-03T22:35:52.841Z,1.40
2023-04-03T22:38:20.536Z,1.30
2023-04-03T22:40:48.429Z,1.27
2023-04-03T22:43:16.296Z,1.27
2023-04-03T22:45:51.302Z,1.37
2023-04-03T22:48:19.024Z,1.30
2023-04-03T22:50:46.949Z,1.33
2023-04-03T22:53:14.602Z,1.23
2023-04-03T22:55:42.442Z,1.20
2023-04-03T22:58:10.180Z,1.43
2023-04-03T23:00:37.927Z,2.07
2023-04-03T23:03:09.372Z,1.33
2023-04-03T23:05:40.168Z,1.40
2023-04-03T23:08:07.846Z,1.27
2023-04-03T23:10:35.603Z,1.30
2023-04-03T23:13:03.352Z,1.43
2023-04-03T23:15:31.071Z,1.53
2023-04-03T23:17:58.753Z,1.77
2023-04-03T23:20:27.894Z,1.80
2023-04-03T23:22:55.571Z,1.47
2023-04-03T23:25:23.240Z,1.30
2023-04-03T23:27:52.528Z,1.67
2023-04-03T23:30:20.635Z,1.83
2023-04-03T23:32:48.669Z,1.43
2023-04-03T23:35:16.659Z,2.30
2023-04-03T23:37:45.713Z,1.73
2023-04-03T23:40:13.944Z,1.93
2023-04-03T23:42:42.293Z,1.60
2023-04-03T23:45:10.736Z,1.70
2023-04-03T23:47:38.519Z,1.80
2023-04-03T23:50:07.392Z,1.60
2023-04-03T23:52:35.112Z,1.57
2023-04-03T23:55:04.515Z,1.60
2023-04-03T23:57:32.261Z,1.53
2023-04-03T23:59:59.899Z,1.60
